sensor_id;sensor_type;location;lat;lon;timestamp;P1;durP1;ratioP1;P2;durP2;ratioP2
22441;SDS011;11388;54.456;9.752;2022-12-29T00:00:49;4.72;;;3.97;;
22441;SDS011;11388;54.456;9.752;2022-12-29T00:03:17;4.30;;;3.90;;
22441;SDS011;11388;54.456;9.752;2022-12-29T00:05:43;4.45;;;4.05;;
22441;SDS011;11388;54.456;9.752;2022-12-29T00:08:09;4.65;;;4.15;;
22441;SDS011;11388;54.456;9.752;2022-12-29T00:10:34;5.78;;;4.40;;
22441;SDS011;11388;54.456;9.752;2022-12-29T00:13:00;4.43;;;4.00;;
22441;SDS011;11388;54.456;9.752;2022-12-29T00:15:44;5.70;;;4.15;;
22441;SDS011;11388;54.456;9.752;2022-12-29T00:18:10;4.88;;;3.70;;
22441;SDS011;11388;54.456;9.752;2022-12-29T00:20:36;4.30;;;3.83;;
22441;SDS011;11388;54.456;9.752;2022-12-29T00:23:20;3.97;;;3.55;;
22441;SDS011;11388;54.456;9.752;2022-12-29T00:26:09;4.25;;;3.85;;
22441;SDS011;11388;54.456;9.752;2022-12-29T00:28:58;4.00;;;3.60;;
22441;SDS011;11388;54.456;9.752;2022-12-29T00:31:42;5.10;;;3.72;;
22441;SDS011;11388;54.456;9.752;2022-12-29T00:34:26;4.45;;;4.05;;
22441;SDS011;11388;54.456;9.752;2022-12-29T00:37:10;5.05;;;3.60;;
22441;SDS011;11388;54.456;9.752;2022-12-29T00:39:36;4.63;;;3.70;;
22441;SDS011;11388;54.456;9.752;2022-12-29T00:42:20;3.97;;;3.60;;
22441;SDS011;11388;54.456;9.752;2022-12-29T00:45:05;5.18;;;3.60;;
22441;SDS011;11388;54.456;9.752;2022-12-29T00:47:30;4.25;;;3.83;;
22441;SDS011;11388;54.456;9.752;2022-12-29T00:49:56;4.55;;;4.15;;
22441;SDS011;11388;54.456;9.752;2022-12-29T00:52:22;4.38;;;3.92;;
22441;SDS011;11388;54.456;9.752;2022-12-29T00:54:47;4.45;;;4.05;;
22441;SDS011;11388;54.456;9.752;2022-12-29T00:57:13;4.00;;;3.70;;
22441;SDS011;11388;54.456;9.752;2022-12-29T00:59:39;4.30;;;3.90;;
22441;SDS011;11388;54.456;9.752;2022-12-29T01:02:06;3.95;;;3.47;;
22441;SDS011;11388;54.456;9.752;2022-12-29T01:04:33;4.30;;;3.90;;
22441;SDS011;11388;54.456;9.752;2022-12-29T01:06:59;4.43;;;3.80;;
22441;SDS011;11388;54.456;9.752;2022-12-29T01:09:24;3.72;;;3.38;;
22441;SDS011;11388;54.456;9.752;2022-12-29T01:12:09;4.20;;;3.80;;
22441;SDS011;11388;54.456;9.752;2022-12-29T01:14:36;4.63;;;4.10;;
22441;SDS011;11388;54.456;9.752;2022-12-29T01:17:02;4.05;;;3.75;;
22441;SDS011;11388;54.456;9.752;2022-12-29T01:19:28;4.72;;;4.25;;
22441;SDS011;11388;54.456;9.752;2022-12-29T01:21:54;4.47;;;3.80;;
22441;SDS011;11388;54.456;9.752;2022-12-29T01:24:20;4.75;;;4.10;;
22441;SDS011;11388;54.456;9.752;2022-12-29T01:26:45;5.47;;;4.30;;
22441;SDS011;11388;54.456;9.752;2022-12-29T01:29:11;4.88;;;4.47;;
22441;SDS011;11388;54.456;9.752;2022-12-29T01:31:37;5.07;;;4.57;;
22441;SDS011;11388;54.456;9.752;2022-12-29T01:34:03;5.25;;;4.75;;
22441;SDS011;11388;54.456;9.752;2022-12-29T01:36:29;5.30;;;4.80;;
22441;SDS011;11388;54.456;9.752;2022-12-29T01:38:55;5.50;;;5.00;;
22441;SDS011;11388;54.456;9.752;2022-12-29T01:41:21;5.10;;;4.60;;
22441;SDS011;11388;54.456;9.752;2022-12-29T01:43:48;5.10;;;4.70;;
22441;SDS011;11388;54.456;9.752;2022-12-29T01:48:49;5.00;;;4.50;;
22441;SDS011;11388;54.456;9.752;2022-12-29T01:51:18;5.00;;;4.60;;
22441;SDS011;11388;54.456;9.752;2022-12-29T01:53:48;5.25;;;4.75;;
22441;SDS011;11388;54.456;9.752;2022-12-29T01:56:14;5.07;;;4.55;;
22441;SDS011;11388;54.456;9.752;2022-12-29T01:58:43;4.70;;;4.30;;
22441;SDS011;11388;54.456;9.752;2022-12-29T02:01:12;5.28;;;4.78;;
22441;SDS011;11388;54.456;9.752;2022-12-29T02:03:40;5.57;;;4.90;;
22441;SDS011;11388;54.456;9.752;2022-12-29T02:08:35;4.80;;;4.40;;
22441;SDS011;11388;54.456;9.752;2022-12-29T02:11:03;5.40;;;4.90;;
22441;SDS011;11388;54.456;9.752;2022-12-29T02:13:29;5.03;;;4.53;;
22441;SDS011;11388;54.456;9.752;2022-12-29T02:16:08;5.13;;;4.72;;
22441;SDS011;11388;54.456;9.752;2022-12-29T02:18:57;5.57;;;5.07;;
22441;SDS011;11388;54.456;9.752;2022-12-29T02:32:28;5.97;;;5.38;;
22441;SDS011;11388;54.456;9.752;2022-12-29T02:40:53;6.55;;;5.95;;
22441;SDS011;11388;54.456;9.752;2022-12-29T02:43:32;5.78;;;5.28;;
22441;SDS011;11388;54.456;9.752;2022-12-29T02:46:17;5.72;;;5.20;;
22441;SDS011;11388;54.456;9.752;2022-12-29T02:49:05;5.60;;;5.10;;
22441;SDS011;11388;54.456;9.752;2022-12-29T02:51:40;5.38;;;4.97;;
22441;SDS011;11388;54.456;9.752;2022-12-29T02:54:23;5.18;;;4.70;;
22441;SDS011;11388;54.456;9.752;2022-12-29T02:59:55;6.50;;;6.00;;
22441;SDS011;11388;54.456;9.752;2022-12-29T03:06:17;5.60;;;5.10;;
22441;SDS011;11388;54.456;9.752;2022-12-29T03:08:24;5.57;;;4.90;;
22441;SDS011;11388;54.456;9.752;2022-12-29T03:11:10;5.45;;;5.05;;
22441;SDS011;11388;54.456;9.752;2022-12-29T03:14:07;5.80;;;5.30;;
22441;SDS011;11388;54.456;9.752;2022-12-29T03:17:00;6.05;;;5.45;;
22441;SDS011;11388;54.456;9.752;2022-12-29T03:19:35;5.88;;;5.38;;
22441;SDS011;11388;54.456;9.752;2022-12-29T03:22:10;6.07;;;5.47;;
22441;SDS011;11388;54.456;9.752;2022-12-29T03:25:19;5.60;;;5.13;;
22441;SDS011;11388;54.456;9.752;2022-12-29T03:28:08;5.15;;;4.65;;
22441;SDS011;11388;54.456;9.752;2022-12-29T03:30:37;5.10;;;4.60;;
22441;SDS011;11388;54.456;9.752;2022-12-29T03:33:05;5.47;;;5.00;;
22441;SDS011;11388;54.456;9.752;2022-12-29T03:35:35;5.97;;;5.43;;
22441;SDS011;11388;54.456;9.752;2022-12-29T03:40:29;5.35;;;4.93;;
22441;SDS011;11388;54.456;9.752;2022-12-29T03:43:01;5.40;;;4.90;;
22441;SDS011;11388;54.456;9.752;2022-12-29T03:45:28;5.93;;;4.65;;
22441;SDS011;11388;54.456;9.752;2022-12-29T03:47:53;5.13;;;4.43;;
22441;SDS011;11388;54.456;9.752;2022-12-29T03:50:19;4.90;;;4.40;;
22441;SDS011;11388;54.456;9.752;2022-12-29T03:52:45;4.47;;;4.07;;
22441;SDS011;11388;54.456;9.752;2022-12-29T03:55:10;5.10;;;4.57;;
22441;SDS011;11388;54.456;9.752;2022-12-29T03:57:36;4.95;;;4.55;;
22441;SDS011;11388;54.456;9.752;2022-12-29T04:00:03;5.25;;;4.85;;
22441;SDS011;11388;54.456;9.752;2022-12-29T04:02:29;5.50;;;4.97;;
22441;SDS011;11388;54.456;9.752;2022-12-29T04:04:55;5.15;;;4.60;;
22441;SDS011;11388;54.456;9.752;2022-12-29T04:07:21;5.05;;;4.65;;
22441;SDS011;11388;54.456;9.752;2022-12-29T04:09:47;5.50;;;4.88;;
22441;SDS011;11388;54.456;9.752;2022-12-29T04:12:12;5.45;;;4.95;;
22441;SDS011;11388;54.456;9.752;2022-12-29T04:14:39;5.50;;;4.88;;
22441;SDS011;11388;54.456;9.752;2022-12-29T04:17:05;5.68;;;4.85;;
22441;SDS011;11388;54.456;9.752;2022-12-29T04:19:31;5.00;;;4.60;;
22441;SDS011;11388;54.456;9.752;2022-12-29T04:21:56;5.05;;;4.65;;
22441;SDS011;11388;54.456;9.752;2022-12-29T04:24:22;5.25;;;4.70;;
22441;SDS011;11388;54.456;9.752;2022-12-29T04:26:48;5.22;;;4.72;;
22441;SDS011;11388;54.456;9.752;2022-12-29T04:29:14;4.90;;;4.50;;
22441;SDS011;11388;54.456;9.752;2022-12-29T04:31:39;5.97;;;4.93;;
22441;SDS011;11388;54.456;9.752;2022-12-29T04:34:05;4.80;;;4.40;;
22441;SDS011;11388;54.456;9.752;2022-12-29T04:36:31;4.95;;;4.55;;
22441;SDS011;11388;54.456;9.752;2022-12-29T04:38:56;5.47;;;4.97;;
22441;SDS011;11388;54.456;9.752;2022-12-29T04:41:22;5.82;;;5.32;;
22441;SDS011;11388;54.456;9.752;2022-12-29T04:43:49;5.32;;;4.82;;
22441;SDS011;11388;54.456;9.752;2022-12-29T04:46:14;5.70;;;5.20;;
22441;SDS011;11388;54.456;9.752;2022-12-29T04:48:40;7.13;;;5.55;;
22441;SDS011;11388;54.456;9.752;2022-12-29T04:51:06;5.90;;;5.28;;
22441;SDS011;11388;54.456;9.752;2022-12-29T04:53:31;6.00;;;5.35;;
22441;SDS011;11388;54.456;9.752;2022-12-29T04:55:57;5.90;;;5.40;;
22441;SDS011;11388;54.456;9.752;2022-12-29T04:58:23;5.40;;;4.90;;
22441;SDS011;11388;54.456;9.752;2022-12-29T05:00:49;5.43;;;4.93;;
22441;SDS011;11388;54.456;9.752;2022-12-29T05:03:15;5.65;;;5.13;;
22441;SDS011;11388;54.456;9.752;2022-12-29T05:05:41;5.43;;;5.00;;
22441;SDS011;11388;54.456;9.752;2022-12-29T05:08:07;5.10;;;4.70;;
22441;SDS011;11388;54.456;9.752;2022-12-29T05:10:32;5.60;;;5.10;;
22441;SDS011;11388;54.456;9.752;2022-12-29T05:12:58;4.95;;;4.55;;
22441;SDS011;11388;54.456;9.752;2022-12-29T05:15:24;5.60;;;5.10;;
22441;SDS011;11388;54.456;9.752;2022-12-29T05:17:50;5.38;;;4.88;;
22441;SDS011;11388;54.456;9.752;2022-12-29T05:20:16;5.55;;;5.05;;
22441;SDS011;11388;54.456;9.752;2022-12-29T05:22:41;5.45;;;4.93;;
22441;SDS011;11388;54.456;9.752;2022-12-29T05:25:08;5.00;;;4.32;;
22441;SDS011;11388;54.456;9.752;2022-12-29T05:27:34;5.38;;;4.90;;
22441;SDS011;11388;54.456;9.752;2022-12-29T05:29:59;4.97;;;4.57;;
22441;SDS011;11388;54.456;9.752;2022-12-29T05:32:25;6.35;;;4.72;;
22441;SDS011;11388;54.456;9.752;2022-12-29T05:34:51;4.90;;;4.50;;
22441;SDS011;11388;54.456;9.752;2022-12-29T05:37:17;4.88;;;4.30;;
22441;SDS011;11388;54.456;9.752;2022-12-29T05:39:42;5.35;;;4.90;;
22441;SDS011;11388;54.456;9.752;2022-12-29T05:42:08;4.38;;;3.97;;
22441;SDS011;11388;54.456;9.752;2022-12-29T05:44:34;4.32;;;4.03;;
22441;SDS011;11388;54.456;9.752;2022-12-29T05:46:59;4.80;;;4.40;;
22441;SDS011;11388;54.456;9.752;2022-12-29T05:49:25;4.40;;;4.00;;
22441;SDS011;11388;54.456;9.752;2022-12-29T05:51:51;4.55;;;4.15;;
22441;SDS011;11388;54.456;9.752;2022-12-29T05:54:16;4.60;;;4.20;;
22441;SDS011;11388;54.456;9.752;2022-12-29T05:56:42;4.57;;;3.90;;
22441;SDS011;11388;54.456;9.752;2022-12-29T05:59:08;4.70;;;4.30;;
22441;SDS011;11388;54.456;9.752;2022-12-29T06:01:33;4.60;;;4.20;;
22441;SDS011;11388;54.456;9.752;2022-12-29T06:03:59;59.83;;;7.30;;
22441;SDS011;11388;54.456;9.752;2022-12-29T06:06:25;6.25;;;0.98;;
22441;SDS011;11388;54.456;9.752;2022-12-29T06:08:51;9.85;;;1.00;;
22441;SDS011;11388;54.456;9.752;2022-12-29T06:11:17;2.47;;;0.50;;
22441;SDS011;11388;54.456;9.752;2022-12-29T06:13:42;2.90;;;0.50;;
22441;SDS011;11388;54.456;9.752;2022-12-29T06:16:08;0.30;;;0.30;;
22441;SDS011;11388;54.456;9.752;2022-12-29T06:18:36;1.40;;;0.80;;
22441;SDS011;11388;54.456;9.752;2022-12-29T06:21:02;2.42;;;1.50;;
22441;SDS011;11388;54.456;9.752;2022-12-29T06:23:29;2.40;;;2.08;;
22441;SDS011;11388;54.456;9.752;2022-12-29T06:25:55;2.20;;;1.85;;
22441;SDS011;11388;54.456;9.752;2022-12-29T06:28:22;2.92;;;2.50;;
22441;SDS011;11388;54.456;9.752;2022-12-29T06:30:48;3.97;;;2.90;;
22441;SDS011;11388;54.456;9.752;2022-12-29T06:33:28;3.85;;;2.50;;
22441;SDS011;11388;54.456;9.752;2022-12-29T06:35:54;3.13;;;2.60;;
22441;SDS011;11388;54.456;9.752;2022-12-29T06:38:20;3.40;;;2.17;;
22441;SDS011;11388;54.456;9.752;2022-12-29T06:40:46;2.83;;;2.20;;
22441;SDS011;11388;54.456;9.752;2022-12-29T06:43:11;4.50;;;2.33;;
22441;SDS011;11388;54.456;9.752;2022-12-29T06:45:37;3.00;;;1.80;;
22441;SDS011;11388;54.456;9.752;2022-12-29T06:48:05;2.80;;;1.90;;
22441;SDS011;11388;54.456;9.752;2022-12-29T06:50:30;3.53;;;2.10;;
22441;SDS011;11388;54.456;9.752;2022-12-29T06:52:56;3.80;;;1.80;;
22441;SDS011;11388;54.456;9.752;2022-12-29T06:55:22;3.25;;;2.00;;
22441;SDS011;11388;54.456;9.752;2022-12-29T06:57:47;3.38;;;2.00;;
22441;SDS011;11388;54.456;9.752;2022-12-29T07:00:13;2.58;;;1.70;;
22441;SDS011;11388;54.456;9.752;2022-12-29T07:02:39;2.13;;;1.42;;
22441;SDS011;11388;54.456;9.752;2022-12-29T07:05:05;2.28;;;1.40;;
22441;SDS011;11388;54.456;9.752;2022-12-29T07:07:32;3.47;;;1.50;;
22441;SDS011;11388;54.456;9.752;2022-12-29T07:09:57;1.83;;;1.23;;
22441;SDS011;11388;54.456;9.752;2022-12-29T07:12:23;2.38;;;1.33;;
22441;SDS011;11388;54.456;9.752;2022-12-29T07:14:49;2.03;;;1.17;;
22441;SDS011;11388;54.456;9.752;2022-12-29T07:17:14;1.30;;;0.95;;
22441;SDS011;11388;54.456;9.752;2022-12-29T07:19:40;2.05;;;0.95;;
22441;SDS011;11388;54.456;9.752;2022-12-29T07:22:06;2.67;;;0.88;;
22441;SDS011;11388;54.456;9.752;2022-12-29T07:24:31;1.75;;;0.88;;
22441;SDS011;11388;54.456;9.752;2022-12-29T07:26:57;1.85;;;0.90;;
22441;SDS011;11388;54.456;9.752;2022-12-29T07:29:23;1.75;;;0.90;;
22441;SDS011;11388;54.456;9.752;2022-12-29T07:31:49;2.30;;;1.08;;
22441;SDS011;11388;54.456;9.752;2022-12-29T07:34:15;1.08;;;0.70;;
22441;SDS011;11388;54.456;9.752;2022-12-29T07:36:40;1.67;;;0.70;;
22441;SDS011;11388;54.456;9.752;2022-12-29T07:39:06;3.03;;;0.80;;
22441;SDS011;11388;54.456;9.752;2022-12-29T07:41:32;2.65;;;0.70;;
22441;SDS011;11388;54.456;9.752;2022-12-29T07:43:57;3.78;;;0.60;;
22441;SDS011;11388;54.456;9.752;2022-12-29T07:46:23;1.98;;;0.60;;
22441;SDS011;11388;54.456;9.752;2022-12-29T07:48:49;3.10;;;0.70;;
22441;SDS011;11388;54.456;9.752;2022-12-29T07:51:14;2.38;;;0.80;;
22441;SDS011;11388;54.456;9.752;2022-12-29T07:53:40;2.70;;;0.73;;
22441;SDS011;11388;54.456;9.752;2022-12-29T07:56:06;3.22;;;0.70;;
22441;SDS011;11388;54.456;9.752;2022-12-29T07:58:31;4.65;;;0.65;;
22441;SDS011;11388;54.456;9.752;2022-12-29T08:00:57;2.08;;;0.52;;
22441;SDS011;11388;54.456;9.752;2022-12-29T08:03:23;4.00;;;0.80;;
22441;SDS011;11388;54.456;9.752;2022-12-29T08:05:50;3.13;;;0.60;;
22441;SDS011;11388;54.456;9.752;2022-12-29T08:08:17;5.78;;;0.80;;
22441;SDS011;11388;54.456;9.752;2022-12-29T08:10:43;3.83;;;0.80;;
22441;SDS011;11388;54.456;9.752;2022-12-29T08:13:10;4.10;;;1.15;;
22441;SDS011;11388;54.456;9.752;2022-12-29T08:15:37;3.20;;;0.70;;
22441;SDS011;11388;54.456;9.752;2022-12-29T08:18:03;3.42;;;0.90;;
22441;SDS011;11388;54.456;9.752;2022-12-29T08:20:29;4.20;;;1.08;;
22441;SDS011;11388;54.456;9.752;2022-12-29T08:22:54;3.13;;;0.90;;
22441;SDS011;11388;54.456;9.752;2022-12-29T08:25:20;4.28;;;1.00;;
22441;SDS011;11388;54.456;9.752;2022-12-29T08:27:46;4.85;;;0.88;;
22441;SDS011;11388;54.456;9.752;2022-12-29T08:30:12;6.20;;;1.02;;
22441;SDS011;11388;54.456;9.752;2022-12-29T08:32:41;3.25;;;1.00;;
22441;SDS011;11388;54.456;9.752;2022-12-29T08:35:07;4.32;;;0.90;;
22441;SDS011;11388;54.456;9.752;2022-12-29T08:37:33;6.95;;;1.20;;
22441;SDS011;11388;54.456;9.752;2022-12-29T08:39:59;4.38;;;1.30;;
22441;SDS011;11388;54.456;9.752;2022-12-29T08:42:28;6.68;;;1.35;;
22441;SDS011;11388;54.456;9.752;2022-12-29T08:44:58;4.57;;;1.00;;
22441;SDS011;11388;54.456;9.752;2022-12-29T08:47:24;3.00;;;1.00;;
22441;SDS011;11388;54.456;9.752;2022-12-29T08:49:50;4.68;;;0.90;;
22441;SDS011;11388;54.456;9.752;2022-12-29T08:52:16;3.72;;;0.80;;
22441;SDS011;11388;54.456;9.752;2022-12-29T08:54:42;4.65;;;1.33;;
22441;SDS011;11388;54.456;9.752;2022-12-29T08:57:07;5.70;;;1.13;;
22441;SDS011;11388;54.456;9.752;2022-12-29T08:59:35;5.20;;;1.10;;
22441;SDS011;11388;54.456;9.752;2022-12-29T09:02:01;4.85;;;1.25;;
22441;SDS011;11388;54.456;9.752;2022-12-29T09:04:27;3.92;;;0.90;;
22441;SDS011;11388;54.456;9.752;2022-12-29T09:06:53;4.97;;;1.30;;
22441;SDS011;11388;54.456;9.752;2022-12-29T09:09:18;4.70;;;1.30;;
22441;SDS011;11388;54.456;9.752;2022-12-29T09:11:44;5.60;;;1.00;;
22441;SDS011;11388;54.456;9.752;2022-12-29T09:14:11;13.55;;;1.60;;
22441;SDS011;11388;54.456;9.752;2022-12-29T09:16:37;4.80;;;1.15;;
22441;SDS011;11388;54.456;9.752;2022-12-29T09:19:03;3.33;;;0.88;;
22441;SDS011;11388;54.456;9.752;2022-12-29T09:21:29;6.03;;;1.20;;
22441;SDS011;11388;54.456;9.752;2022-12-29T09:23:55;4.30;;;0.93;;
22441;SDS011;11388;54.456;9.752;2022-12-29T09:26:21;5.78;;;1.20;;
22441;SDS011;11388;54.456;9.752;2022-12-29T09:28:47;5.28;;;1.20;;
22441;SDS011;11388;54.456;9.752;2022-12-29T09:31:13;3.67;;;0.90;;
22441;SDS011;11388;54.456;9.752;2022-12-29T09:33:45;4.32;;;1.10;;
22441;SDS011;11388;54.456;9.752;2022-12-29T09:36:11;4.50;;;1.00;;
22441;SDS011;11388;54.456;9.752;2022-12-29T09:38:37;5.40;;;1.27;;
22441;SDS011;11388;54.456;9.752;2022-12-29T09:41:20;5.90;;;1.08;;
22441;SDS011;11388;54.456;9.752;2022-12-29T09:44:09;6.63;;;1.20;;
22441;SDS011;11388;54.456;9.752;2022-12-29T09:46:44;5.18;;;1.20;;
22441;SDS011;11388;54.456;9.752;2022-12-29T09:52:06;5.35;;;1.30;;
22441;SDS011;11388;54.456;9.752;2022-12-29T09:54:41;7.60;;;1.60;;
22441;SDS011;11388;54.456;9.752;2022-12-29T09:57:13;5.82;;;1.42;;
22441;SDS011;11388;54.456;9.752;2022-12-29T09:59:52;6.70;;;1.35;;
22441;SDS011;11388;54.456;9.752;2022-12-29T10:04:50;8.27;;;1.98;;
22441;SDS011;11388;54.456;9.752;2022-12-29T10:21:29;9.23;;;1.42;;
22441;SDS011;11388;54.456;9.752;2022-12-29T10:23:59;6.13;;;1.40;;
22441;SDS011;11388;54.456;9.752;2022-12-29T10:26:30;8.23;;;1.60;;
22441;SDS011;11388;54.456;9.752;2022-12-29T10:29:04;5.95;;;1.40;;
22441;SDS011;11388;54.456;9.752;2022-12-29T10:34:15;5.10;;;1.30;;
22441;SDS011;11388;54.456;9.752;2022-12-29T10:36:52;6.97;;;1.38;;
22441;SDS011;11388;54.456;9.752;2022-12-29T10:39:29;4.93;;;1.42;;
22441;SDS011;11388;54.456;9.752;2022-12-29T10:42:03;7.47;;;1.35;;
22441;SDS011;11388;54.456;9.752;2022-12-29T10:44:59;6.20;;;1.33;;
22441;SDS011;11388;54.456;9.752;2022-12-29T10:47:27;6.47;;;1.50;;
22441;SDS011;11388;54.456;9.752;2022-12-29T10:49:55;6.35;;;1.35;;
22441;SDS011;11388;54.456;9.752;2022-12-29T10:52:23;6.40;;;1.65;;
22441;SDS011;11388;54.456;9.752;2022-12-29T10:55:02;6.68;;;1.50;;
22441;SDS011;11388;54.456;9.752;2022-12-29T10:57:38;6.60;;;1.20;;
22441;SDS011;11388;54.456;9.752;2022-12-29T11:00:13;4.18;;;1.10;;
22441;SDS011;11388;54.456;9.752;2022-12-29T11:05:57;5.88;;;1.30;;
22441;SDS011;11388;54.456;9.752;2022-12-29T11:08:35;5.03;;;1.15;;
22441;SDS011;11388;54.456;9.752;2022-12-29T11:11:07;5.13;;;1.30;;
22441;SDS011;11388;54.456;9.752;2022-12-29T11:13:36;7.25;;;1.40;;
22441;SDS011;11388;54.456;9.752;2022-12-29T11:16:12;7.32;;;1.63;;
22441;SDS011;11388;54.456;9.752;2022-12-29T11:18:39;5.70;;;1.30;;
22441;SDS011;11388;54.456;9.752;2022-12-29T11:21:23;6.72;;;1.15;;
22441;SDS011;11388;54.456;9.752;2022-12-29T11:24:01;6.25;;;1.48;;
22441;SDS011;11388;54.456;9.752;2022-12-29T11:26:29;5.00;;;1.27;;
22441;SDS011;11388;54.456;9.752;2022-12-29T11:31:39;7.80;;;1.70;;
22441;SDS011;11388;54.456;9.752;2022-12-29T11:34:15;8.13;;;1.77;;
22441;SDS011;11388;54.456;9.752;2022-12-29T11:36:45;3.35;;;1.15;;
22441;SDS011;11388;54.456;9.752;2022-12-29T11:39:24;5.00;;;1.17;;
22441;SDS011;11388;54.456;9.752;2022-12-29T11:41:57;7.57;;;1.90;;
22441;SDS011;11388;54.456;9.752;2022-12-29T11:44:24;5.93;;;1.23;;
22441;SDS011;11388;54.456;9.752;2022-12-29T11:46:51;6.85;;;1.40;;
22441;SDS011;11388;54.456;9.752;2022-12-29T11:49:24;7.50;;;1.63;;
22441;SDS011;11388;54.456;9.752;2022-12-29T11:51:51;6.75;;;1.50;;
22441;SDS011;11388;54.456;9.752;2022-12-29T11:54:26;8.32;;;1.77;;
22441;SDS011;11388;54.456;9.752;2022-12-29T11:56:55;5.70;;;1.40;;
22441;SDS011;11388;54.456;9.752;2022-12-29T12:01:59;10.02;;;1.90;;
22441;SDS011;11388;54.456;9.752;2022-12-29T12:04:34;9.73;;;1.73;;
22441;SDS011;11388;54.456;9.752;2022-12-29T12:07:03;9.25;;;2.10;;
22441;SDS011;11388;54.456;9.752;2022-12-29T12:09:47;9.05;;;1.77;;
22441;SDS011;11388;54.456;9.752;2022-12-29T12:12:22;7.88;;;1.98;;
22441;SDS011;11388;54.456;9.752;2022-12-29T12:15:04;9.98;;;1.88;;
22441;SDS011;11388;54.456;9.752;2022-12-29T12:17:33;10.45;;;1.80;;
22441;SDS011;11388;54.456;9.752;2022-12-29T12:20:17;8.18;;;1.60;;
22441;SDS011;11388;54.456;9.752;2022-12-29T12:23:06;7.55;;;1.90;;
22441;SDS011;11388;54.456;9.752;2022-12-29T12:26:09;7.93;;;2.15;;
22441;SDS011;11388;54.456;9.752;2022-12-29T12:34:37;6.53;;;1.75;;
22441;SDS011;11388;54.456;9.752;2022-12-29T12:45:55;8.38;;;1.90;;
22441;SDS011;11388;54.456;9.752;2022-12-29T12:48:47;7.65;;;1.90;;
22441;SDS011;11388;54.456;9.752;2022-12-29T12:51:29;6.55;;;1.52;;
22441;SDS011;11388;54.456;9.752;2022-12-29T13:00:23;7.75;;;1.77;;
22441;SDS011;11388;54.456;9.752;2022-12-29T13:06:09;7.60;;;1.50;;
22441;SDS011;11388;54.456;9.752;2022-12-29T13:11:24;4.68;;;1.27;;
22441;SDS011;11388;54.456;9.752;2022-12-29T13:14:09;5.97;;;1.20;;
22441;SDS011;11388;54.456;9.752;2022-12-29T13:19:23;4.85;;;1.17;;
22441;SDS011;11388;54.456;9.752;2022-12-29T13:24:36;7.75;;;1.77;;
22441;SDS011;11388;54.456;9.752;2022-12-29T13:30:33;7.50;;;1.70;;
22441;SDS011;11388;54.456;9.752;2022-12-29T13:33:33;7.07;;;1.88;;
22441;SDS011;11388;54.456;9.752;2022-12-29T13:36:10;9.95;;;2.20;;
22441;SDS011;11388;54.456;9.752;2022-12-29T13:38:58;9.25;;;2.05;;
22441;SDS011;11388;54.456;9.752;2022-12-29T13:41:35;8.52;;;1.77;;
22441;SDS011;11388;54.456;9.752;2022-12-29T13:44:11;8.13;;;2.00;;
22441;SDS011;11388;54.456;9.752;2022-12-29T13:46:44;9.70;;;2.45;;
22441;SDS011;11388;54.456;9.752;2022-12-29T13:49:18;10.57;;;2.50;;
22441;SDS011;11388;54.456;9.752;2022-12-29T13:51:47;9.80;;;2.33;;
22441;SDS011;11388;54.456;9.752;2022-12-29T13:54:27;10.75;;;2.50;;
22441;SDS011;11388;54.456;9.752;2022-12-29T13:59:58;9.27;;;2.10;;
22441;SDS011;11388;54.456;9.752;2022-12-29T14:07:48;9.75;;;2.33;;
22441;SDS011;11388;54.456;9.752;2022-12-29T14:10:37;15.90;;;2.47;;
22441;SDS011;11388;54.456;9.752;2022-12-29T14:13:12;10.32;;;2.58;;
22441;SDS011;11388;54.456;9.752;2022-12-29T14:15:44;15.68;;;2.88;;
22441;SDS011;11388;54.456;9.752;2022-12-29T14:18:22;9.63;;;2.42;;
22441;SDS011;11388;54.456;9.752;2022-12-29T14:21:38;15.32;;;3.40;;
22441;SDS011;11388;54.456;9.752;2022-12-29T14:23:39;13.45;;;3.20;;
22441;SDS011;11388;54.456;9.752;2022-12-29T14:28:47;12.93;;;2.80;;
22441;SDS011;11388;54.456;9.752;2022-12-29T14:36:55;11.35;;;2.50;;
22441;SDS011;11388;54.456;9.752;2022-12-29T14:39:44;11.88;;;2.60;;
22441;SDS011;11388;54.456;9.752;2022-12-29T14:44:49;13.15;;;3.08;;
22441;SDS011;11388;54.456;9.752;2022-12-29T14:49:51;11.85;;;2.80;;
22441;SDS011;11388;54.456;9.752;2022-12-29T14:52:22;11.50;;;2.80;;
22441;SDS011;11388;54.456;9.752;2022-12-29T14:54:51;11.57;;;2.88;;
22441;SDS011;11388;54.456;9.752;2022-12-29T14:57:20;11.27;;;2.70;;
22441;SDS011;11388;54.456;9.752;2022-12-29T15:00:04;11.93;;;2.42;;
22441;SDS011;11388;54.456;9.752;2022-12-29T15:02:38;11.10;;;2.40;;
22441;SDS011;11388;54.456;9.752;2022-12-29T15:05:22;10.93;;;3.05;;
22441;SDS011;11388;54.456;9.752;2022-12-29T15:07:56;10.38;;;2.65;;
22441;SDS011;11388;54.456;9.752;2022-12-29T15:10:23;11.40;;;2.60;;
22441;SDS011;11388;54.456;9.752;2022-12-29T15:12:54;11.57;;;2.75;;
22441;SDS011;11388;54.456;9.752;2022-12-29T15:17:54;10.48;;;2.63;;
22441;SDS011;11388;54.456;9.752;2022-12-29T15:23:03;8.73;;;2.10;;
22441;SDS011;11388;54.456;9.752;2022-12-29T15:25:37;8.50;;;2.30;;
22441;SDS011;11388;54.456;9.752;2022-12-29T15:31:11;12.10;;;2.67;;
22441;SDS011;11388;54.456;9.752;2022-12-29T15:33:39;11.02;;;2.30;;
22441;SDS011;11388;54.456;9.752;2022-12-29T15:36:11;8.63;;;2.35;;
22441;SDS011;11388;54.456;9.752;2022-12-29T15:38:48;12.05;;;2.85;;
22441;SDS011;11388;54.456;9.752;2022-12-29T15:44:20;10.45;;;2.20;;
22441;SDS011;11388;54.456;9.752;2022-12-29T15:46:48;11.40;;;2.50;;
22441;SDS011;11388;54.456;9.752;2022-12-29T15:49:14;9.90;;;2.25;;
22441;SDS011;11388;54.456;9.752;2022-12-29T15:51:41;10.55;;;2.10;;
22441;SDS011;11388;54.456;9.752;2022-12-29T15:54:15;13.75;;;2.35;;
22441;SDS011;11388;54.456;9.752;2022-12-29T15:56:43;15.05;;;3.03;;
22441;SDS011;11388;54.456;9.752;2022-12-29T15:59:26;11.50;;;2.47;;
22441;SDS011;11388;54.456;9.752;2022-12-29T16:01:57;10.65;;;2.35;;
22441;SDS011;11388;54.456;9.752;2022-12-29T16:04:29;10.02;;;2.38;;
22441;SDS011;11388;54.456;9.752;2022-12-29T16:07:00;9.80;;;2.50;;
22441;SDS011;11388;54.456;9.752;2022-12-29T16:09:34;9.65;;;1.70;;
22441;SDS011;11388;54.456;9.752;2022-12-29T16:12:17;9.45;;;2.17;;
22441;SDS011;11388;54.456;9.752;2022-12-29T16:14:59;10.25;;;2.53;;
22441;SDS011;11388;54.456;9.752;2022-12-29T16:17:31;8.90;;;2.08;;
22441;SDS011;11388;54.456;9.752;2022-12-29T16:20:22;10.90;;;2.03;;
22441;SDS011;11388;54.456;9.752;2022-12-29T16:23:04;9.68;;;2.00;;
22441;SDS011;11388;54.456;9.752;2022-12-29T16:25:31;9.63;;;1.95;;
22441;SDS011;11388;54.456;9.752;2022-12-29T16:28:00;11.05;;;1.85;;
22441;SDS011;11388;54.456;9.752;2022-12-29T16:30:29;12.00;;;2.20;;
22441;SDS011;11388;54.456;9.752;2022-12-29T16:33:03;10.52;;;2.15;;
22441;SDS011;11388;54.456;9.752;2022-12-29T16:40:54;10.57;;;2.40;;
22441;SDS011;11388;54.456;9.752;2022-12-29T16:43:22;8.43;;;1.88;;
22441;SDS011;11388;54.456;9.752;2022-12-29T16:50:41;6.80;;;1.60;;
22441;SDS011;11388;54.456;9.752;2022-12-29T16:55:50;6.32;;;1.70;;
22441;SDS011;11388;54.456;9.752;2022-12-29T16:58:21;8.30;;;2.20;;
22441;SDS011;11388;54.456;9.752;2022-12-29T17:01:04;7.40;;;1.70;;
22441;SDS011;11388;54.456;9.752;2022-12-29T17:03:31;12.90;;;1.80;;
22441;SDS011;11388;54.456;9.752;2022-12-29T17:06:14;8.20;;;1.77;;
22441;SDS011;11388;54.456;9.752;2022-12-29T17:08:40;8.40;;;2.17;;
22441;SDS011;11388;54.456;9.752;2022-12-29T17:11:13;6.55;;;1.75;;
22441;SDS011;11388;54.456;9.752;2022-12-29T17:15:11;10.05;;;2.20;;
22441;SDS011;11388;54.456;9.752;2022-12-29T17:17:21;8.57;;;1.55;;
22441;SDS011;11388;54.456;9.752;2022-12-29T17:20:04;5.95;;;1.30;;
22441;SDS011;11388;54.456;9.752;2022-12-29T17:22:38;6.13;;;1.50;;
22441;SDS011;11388;54.456;9.752;2022-12-29T17:25:04;8.90;;;1.77;;
22441;SDS011;11388;54.456;9.752;2022-12-29T17:27:31;8.52;;;1.60;;
22441;SDS011;11388;54.456;9.752;2022-12-29T17:30:09;6.15;;;2.33;;